sensor_id;sensor_type;location;lat;lon;timestamp;temperature;humidity
20858;DHT22;10589;53.636;10.012;2024-01-15T04:45:19;1.80;99.90
20858;DHT22;10589;53.636;10.012;2024-01-15T04:47:45;1.80;99.90
20858;DHT22;10589;53.636;10.012;2024-01-15T04:50:10;1.80;99.90
20858;DHT22;10589;53.636;10.012;2024-01-15T04:52:36;1.80;99.90
20858;DHT22;10589;53.636;10.012;2024-01-15T04:55:01;1.80;99.90
20858;DHT22;10589;53.636;10.012;2024-01-15T04:57:27;1.80;99.90
20858;DHT22;10589;53.636;10.012;2024-01-15T04:59:52;1.80;99.90
20858;DHT22;10589;53.636;10.012;2024-01-15T05:02:18;1.90;99.90
20858;DHT22;10589;53.636;10.012;2024-01-15T05:04:43;1.90;99.90
20858;DHT22;10589;53.636;10.012;2024-01-15T05:07:09;1.90;99.90
20858;DHT22;10589;53.636;10.012;2024-01-15T05:09:35;1.80;99.90
20858;DHT22;10589;53.636;10.012;2024-01-15T05:12:00;1.90;99.90
20858;DHT22;10589;53.636;10.012;2024-01-15T05:14:26;1.90;99.90
20858;DHT22;10589;53.636;10.012;2024-01-15T05:16:51;1.90;99.90
20858;DHT22;10589;53.636;10.012;2024-01-15T05:19:18;1.90;99.90
20858;DHT22;10589;53.636;10.012;2024-01-15T05:21:43;2.00;99.90
20858;DHT22;10589;53.636;10.012;2024-01-15T05:24:09;2.00;99.90
20858;DHT22;10589;53.636;10.012;2024-01-15T05:26:34;2.00;99.90
20858;DHT22;10589;53.636;10.012;2024-01-15T05:29:00;2.00;99.90
20858;DHT22;10589;53.636;10.012;2024-01-15T05:31:26;2.00;99.90
20858;DHT22;10589;53.636;10.012;2024-01-15T05:33:51;2.00;99.90
20858;DHT22;10589;53.636;10.012;2024-01-15T05:36:17;2.10;99.90
20858;DHT22;10589;53.636;10.012;2024-01-15T05:38:42;2.00;99.90
20858;DHT22;10589;53.636;10.012;2024-01-15T05:41:08;2.10;99.90
20858;DHT22;10589;53.636;10.012;2024-01-15T05:43:34;2.10;99.90
20858;DHT22;10589;53.636;10.012;2024-01-15T05:45:59;2.10;99.90
20858;DHT22;10589;53.636;10.012;2024-01-15T05:48:25;2.00;99.90
20858;DHT22;10589;53.636;10.012;2024-01-15T05:50:50;2.00;99.90
20858;DHT22;10589;53.636;10.012;2024-01-15T05:53:16;2.00;99.90
20858;DHT22;10589;53.636;10.012;2024-01-15T05:55:41;2.00;99.90
20858;DHT22;10589;53.636;10.012;2024-01-15T05:58:07;2.10;99.90
20858;DHT22;10589;53.636;10.012;2024-01-15T06:00:33;2.10;99.90
20858;DHT22;10589;53.636;10.012;2024-01-15T06:03:00;2.10;99.90
20858;DHT22;10589;53.636;10.012;2024-01-15T06:05:26;2.10;99.90
20858;DHT22;10589;53.636;10.012;2024-01-15T06:07:51;2.10;99.90
20858;DHT22;10589;53.636;10.012;2024-01-15T06:10:17;2.10;99.90
20858;DHT22;10589;53.636;10.012;2024-01-15T06:12:46;2.20;99.90
20858;DHT22;10589;53.636;10.012;2024-01-15T06:15:11;2.20;99.90
20858;DHT22;10589;53.636;10.012;2024-01-15T06:17:37;2.20;99.90
20858;DHT22;10589;53.636;10.012;2024-01-15T06:20:03;2.10;99.90
20858;DHT22;10589;53.636;10.012;2024-01-15T06:22:29;2.10;99.90
20858;DHT22;10589;53.636;10.012;2024-01-15T06:24:55;2.10;99.90
20858;DHT22;10589;53.636;10.012;2024-01-15T06:27:21;2.00;99.90
20858;DHT22;10589;53.636;10.012;2024-01-15T06:29:47;2.00;99.90
20858;DHT22;10589;53.636;10.012;2024-01-15T06:32:13;2.10;99.90
20858;DHT22;10589;53.636;10.012;2024-01-15T06:34:39;2.00;99.90
20858;DHT22;10589;53.636;10.012;2024-01-15T06:37:05;2.10;99.90
20858;DHT22;10589;53.636;10.012;2024-01-15T06:39:30;2.10;99.90
20858;DHT22;10589;53.636;10.012;2024-01-15T06:41:56;2.20;99.90
20858;DHT22;10589;53.636;10.012;2024-01-15T06:44:22;2.20;99.90
20858;DHT22;10589;53.636;10.012;2024-01-15T06:46:47;2.10;99.90
20858;DHT22;10589;53.636;10.012;2024-01-15T06:49:13;2.10;99.90
20858;DHT22;10589;53.636;10.012;2024-01-15T06:51:39;2.20;99.90
20858;DHT22;10589;53.636;10.012;2024-01-15T06:54:05;2.20;99.90
20858;DHT22;10589;53.636;10.012;2024-01-15T06:56:31;2.10;99.90
20858;DHT22;10589;53.636;10.012;2024-01-15T06:58:57;2.10;99.90
20858;DHT22;10589;53.636;10.012;2024-01-15T07:01:23;2.20;99.90
20858;DHT22;10589;53.636;10.012;2024-01-15T07:03:48;2.20;99.90
20858;DHT22;10589;53.636;10.012;2024-01-15T07:06:14;2.20;99.90
20858;DHT22;10589;53.636;10.012;2024-01-15T07:08:40;2.20;99.90
20858;DHT22;10589;53.636;10.012;2024-01-15T07:11:06;2.20;99.90
20858;DHT22;10589;53.636;10.012;2024-01-15T07:13:32;2.10;99.90
20858;DHT22;10589;53.636;10.012;2024-01-15T07:15:58;2.20;99.90
20858;DHT22;10589;53.636;10.012;2024-01-15T07:18:24;2.20;99.90
20858;DHT22;10589;53.636;10.012;2024-01-15T07:20:50;2.10;99.90
20858;DHT22;10589;53.636;10.012;2024-01-15T07:23:15;2.10;99.90
20858;DHT22;10589;53.636;10.012;2024-01-15T07:25:41;2.20;99.90
20858;DHT22;10589;53.636;10.012;2024-01-15T07:28:07;2.20;99.90
20858;DHT22;10589;53.636;10.012;2024-01-15T07:30:33;2.20;99.90
20858;DHT22;10589;53.636;10.012;2024-01-15T07:32:59;2.20;99.90
20858;DHT22;10589;53.636;10.012;2024-01-15T07:35:24;2.20;99.90
20858;DHT22;10589;53.636;10.012;2024-01-15T07:37:50;2.20;99.90
20858;DHT22;10589;53.636;10.012;2024-01-15T07:40:15;2.20;99.90
20858;DHT22;10589;53.636;10.012;2024-01-15T07:42:41;2.10;99.90
20858;DHT22;10589;53.636;10.012;2024-01-15T07:45:08;2.10;99.90
20858;DHT22;10589;53.636;10.012;2024-01-15T07:47:34;2.00;99.90
20858;DHT22;10589;53.636;10.012;2024-01-15T07:50:00;1.90;99.90
20858;DHT22;10589;53.636;10.012;2024-01-15T07:52:26;1.90;99.90
20858;DHT22;10589;53.636;10.012;2024-01-15T07:54:51;1.90;99.90
20858;DHT22;10589;53.636;10.012;2024-01-15T07:57:17;1.90;99.90
20858;DHT22;10589;53.636;10.012;2024-01-15T07:59:42;1.90;99.90
20858;DHT22;10589;53.636;10.012;2024-01-15T08:02:08;1.90;99.90
20858;DHT22;10589;53.636;10.012;2024-01-15T08:04:34;1.90;99.90
20858;DHT22;10589;53.636;10.012;2024-01-15T08:06:59;2.00;99.90
20858;DHT22;10589;53.636;10.012;2024-01-15T08:09:25;2.00;99.90
20858;DHT22;10589;53.636;10.012;2024-01-15T08:11:51;2.00;99.90
20858;DHT22;10589;53.636;10.012;2024-01-15T08:14:17;2.10;99.90
20858;DHT22;10589;53.636;10.012;2024-01-15T08:16:43;2.20;99.90
20858;DHT22;10589;53.636;10.012;2024-01-15T08:19:09;2.20;99.90
20858;DHT22;10589;53.636;10.012;2024-01-15T08:21:35;2.20;99.90
20858;DHT22;10589;53.636;10.012;2024-01-15T08:24:01;2.20;99.90
20858;DHT22;10589;53.636;10.012;2024-01-15T08:26:30;2.30;99.90
20858;DHT22;10589;53.636;10.012;2024-01-15T08:28:55;2.20;99.90
20858;DHT22;10589;53.636;10.012;2024-01-15T08:31:21;2.30;99.90
20858;DHT22;10589;53.636;10.012;2024-01-15T08:33:47;2.20;99.90
20858;DHT22;10589;53.636;10.012;2024-01-15T08:36:13;2.40;99.90
20858;DHT22;10589;53.636;10.012;2024-01-15T08:38:39;2.40;99.90
20858;DHT22;10589;53.636;10.012;2024-01-15T08:41:04;2.40;99.90
20858;DHT22;10589;53.636;10.012;2024-01-15T08:43:30;2.40;99.90
20858;DHT22;10589;53.636;10.012;2024-01-15T08:45:58;2.50;99.90
20858;DHT22;10589;53.636;10.012;2024-01-15T08:48:24;2.50;99.90
20858;DHT22;10589;53.636;10.012;2024-01-15T08:50:53;2.50;99.90
20858;DHT22;10589;53.636;10.012;2024-01-15T08:53:18;2.50;99.90
20858;DHT22;10589;53.636;10.012;2024-01-15T08:55:44;2.50;99.90
20858;DHT22;10589;53.636;10.012;2024-01-15T08:58:10;2.50;99.90
20858;DHT22;10589;53.636;10.012;2024-01-15T09:00:35;2.50;99.90
20858;DHT22;10589;53.636;10.012;2024-01-15T09:03:02;2.50;99.90
20858;DHT22;10589;53.636;10.012;2024-01-15T09:05:27;2.50;99.90
20858;DHT22;10589;53.636;10.012;2024-01-15T09:07:53;2.40;99.90
20858;DHT22;10589;53.636;10.012;2024-01-15T09:10:19;2.40;99.90
20858;DHT22;10589;53.636;10.012;2024-01-15T09:12:45;2.40;99.90
20858;DHT22;10589;53.636;10.012;2024-01-15T09:15:11;2.30;99.90
20858;DHT22;10589;53.636;10.012;2024-01-15T09:17:36;2.20;99.90
20858;DHT22;10589;53.636;10.012;2024-01-15T09:20:02;2.00;99.90
20858;DHT22;10589;53.636;10.012;2024-01-15T09:22:29;2.00;99.90
20858;DHT22;10589;53.636;10.012;2024-01-15T09:24:55;1.90;99.90
20858;DHT22;10589;53.636;10.012;2024-01-15T09:27:21;2.00;99.90
20858;DHT22;10589;53.636;10.012;2024-01-15T09:29:46;2.00;99.90
20858;DHT22;10589;53.636;10.012;2024-01-15T09:32:12;2.00;99.90
20858;DHT22;10589;53.636;10.012;2024-01-15T09:34:38;2.00;99.90
20858;DHT22;10589;53.636;10.012;2024-01-15T09:37:04;2.00;99.90
20858;DHT22;10589;53.636;10.012;2024-01-15T09:39:30;1.90;99.90
20858;DHT22;10589;53.636;10.012;2024-01-15T09:41:57;1.90;99.90
20858;DHT22;10589;53.636;10.012;2024-01-15T09:44:23;1.90;99.90
20858;DHT22;10589;53.636;10.012;2024-01-15T09:46:49;1.90;99.90
20858;DHT22;10589;53.636;10.012;2024-01-15T09:49:16;1.70;99.90
20858;DHT22;10589;53.636;10.012;2024-01-15T09:51:42;1.90;99.90
20858;DHT22;10589;53.636;10.012;2024-01-15T09:54:08;1.90;99.90
20858;DHT22;10589;53.636;10.012;2024-01-15T09:56:35;1.80;99.90
20858;DHT22;10589;53.636;10.012;2024-01-15T09:59:01;1.80;99.90
20858;DHT22;10589;53.636;10.012;2024-01-15T10:01:28;1.80;99.90
20858;DHT22;10589;53.636;10.012;2024-01-15T10:03:55;1.90;99.90
20858;DHT22;10589;53.636;10.012;2024-01-15T10:06:21;1.90;99.90
20858;DHT22;10589;53.636;10.012;2024-01-15T10:08:49;1.80;99.90
20858;DHT22;10589;53.636;10.012;2024-01-15T10:11:15;1.80;99.90
20858;DHT22;10589;53.636;10.012;2024-01-15T10:13:43;1.80;99.90
20858;DHT22;10589;53.636;10.012;2024-01-15T10:16:09;1.70;99.90
20858;DHT22;10589;53.636;10.012;2024-01-15T10:18:35;1.70;99.90
20858;DHT22;10589;53.636;10.012;2024-01-15T10:21:03;1.70;99.90
20858;DHT22;10589;53.636;10.012;2024-01-15T10:23:29;1.70;99.90
20858;DHT22;10589;53.636;10.012;2024-01-15T10:25:57;1.70;99.90
20858;DHT22;10589;53.636;10.012;2024-01-15T10:28:27;1.80;99.90
20858;DHT22;10589;53.636;10.012;2024-01-15T10:30:55;1.80;99.90
20858;DHT22;10589;53.636;10.012;2024-01-15T10:33:23;1.90;99.90
20858;DHT22;10589;53.636;10.012;2024-01-15T10:36:00;2.00;99.90
20858;DHT22;10589;53.636;10.012;2024-01-15T10:38:26;2.00;99.90
20858;DHT22;10589;53.636;10.012;2024-01-15T10:40:52;2.00;99.90
20858;DHT22;10589;53.636;10.012;2024-01-15T10:43:18;2.00;99.90
20858;DHT22;10589;53.636;10.012;2024-01-15T10:45:48;2.00;99.90
20858;DHT22;10589;53.636;10.012;2024-01-15T10:48:14;2.10;99.90
20858;DHT22;10589;53.636;10.012;2024-01-15T10:50:41;2.00;99.90
20858;DHT22;10589;53.636;10.012;2024-01-15T10:53:08;2.00;99.90
20858;DHT22;10589;53.636;10.012;2024-01-15T10:55:35;2.00;99.90
20858;DHT22;10589;53.636;10.012;2024-01-15T10:58:02;2.00;99.90
20858;DHT22;10589;53.636;10.012;2024-01-15T11:00:29;2.00;99.90
20858;DHT22;10589;53.636;10.012;2024-01-15T11:02:55;2.00;99.90
20858;DHT22;10589;53.636;10.012;2024-01-15T11:05:22;2.10;99.90
20858;DHT22;10589;53.636;10.012;2024-01-15T11:07:50;2.10;99.90
20858;DHT22;10589;53.636;10.012;2024-01-15T11:10:39;2.00;99.90
20858;DHT22;10589;53.636;10.012;2024-01-15T11:16:06;2.10;99.90
20858;DHT22;10589;53.636;10.012;2024-01-15T11:18:42;2.10;99.90
20858;DHT22;10589;53.636;10.012;2024-01-15T11:29:10;2.00;99.90
20858;DHT22;10589;53.636;10.012;2024-01-15T11:34:53;2.10;99.90
20858;DHT22;10589;53.636;10.012;2024-01-15T11:37:20;2.10;99.90
20858;DHT22;10589;53.636;10.012;2024-01-15T11:39:46;2.20;99.90
20858;DHT22;10589;53.636;10.012;2024-01-15T11:42:15;2.30;99.90
20858;DHT22;10589;53.636;10.012;2024-01-15T11:44:41;2.40;99.90
20858;DHT22;10589;53.636;10.012;2024-01-15T11:47:11;2.50;99.90
20858;DHT22;10589;53.636;10.012;2024-01-15T11:49:59;2.50;99.90
20858;DHT22;10589;53.636;10.012;2024-01-15T11:52:26;2.60;99.90
20858;DHT22;10589;53.636;10.012;2024-01-15T11:55:11;2.50;99.90
20858;DHT22;10589;53.636;10.012;2024-01-15T11:57:46;2.60;99.90
20858;DHT22;10589;53.636;10.012;2024-01-15T12:00:12;2.50;99.90
20858;DHT22;10589;53.636;10.012;2024-01-15T12:02:43;2.50;99.90
20858;DHT22;10589;53.636;10.012;2024-01-15T12:05:13;2.40;99.90
20858;DHT22;10589;53.636;10.012;2024-01-15T12:07:40;2.50;99.90
20858;DHT22;10589;53.636;10.012;2024-01-15T12:10:14;2.50;99.90
20858;DHT22;10589;53.636;10.012;2024-01-15T12:15:09;2.50;99.90
20858;DHT22;10589;53.636;10.012;2024-01-15T12:17:35;2.50;99.90
20858;DHT22;10589;53.636;10.012;2024-01-15T12:20:04;2.50;99.90
20858;DHT22;10589;53.636;10.012;2024-01-15T12:22:29;2.40;99.90
20858;DHT22;10589;53.636;10.012;2024-01-15T12:24:55;2.40;99.90
20858;DHT22;10589;53.636;10.012;2024-01-15T12:27:21;2.40;99.90
20858;DHT22;10589;53.636;10.012;2024-01-15T12:29:47;2.50;99.90
20858;DHT22;10589;53.636;10.012;2024-01-15T12:32:13;2.40;99.90
20858;DHT22;10589;53.636;10.012;2024-01-15T12:34:38;2.40;99.90
20858;DHT22;10589;53.636;10.012;2024-01-15T12:37:04;2.40;99.90
20858;DHT22;10589;53.636;10.012;2024-01-15T12:39:34;2.40;99.90
20858;DHT22;10589;53.636;10.012;2024-01-15T12:42:01;2.40;99.90
20858;DHT22;10589;53.636;10.012;2024-01-15T12:44:27;2.40;99.90
20858;DHT22;10589;53.636;10.012;2024-01-15T12:46:53;2.40;99.90
20858;DHT22;10589;53.636;10.012;2024-01-15T12:49:19;2.40;99.90
20858;DHT22;10589;53.636;10.012;2024-01-15T12:51:56;2.30;99.90
20858;DHT22;10589;53.636;10.012;2024-01-15T12:54:23;2.30;99.90
20858;DHT22;10589;53.636;10.012;2024-01-15T12:56:49;2.30;99.90
20858;DHT22;10589;53.636;10.012;2024-01-15T12:59:15;2.30;99.90
20858;DHT22;10589;53.636;10.012;2024-01-15T13:01:41;2.30;99.90
20858;DHT22;10589;53.636;10.012;2024-01-15T13:04:07;2.20;99.90
20858;DHT22;10589;53.636;10.012;2024-01-15T13:06:36;2.30;99.90
20858;DHT22;10589;53.636;10.012;2024-01-15T13:09:03;2.20;99.90
20858;DHT22;10589;53.636;10.012;2024-01-15T13:11:33;2.20;99.90
20858;DHT22;10589;53.636;10.012;2024-01-15T13:13:59;2.20;99.90
20858;DHT22;10589;53.636;10.012;2024-01-15T13:16:25;2.30;99.90
20858;DHT22;10589;53.636;10.012;2024-01-15T13:18:54;2.30;99.90
20858;DHT22;10589;53.636;10.012;2024-01-15T13:21:19;2.20;99.90
20858;DHT22;10589;53.636;10.012;2024-01-15T13:23:45;2.30;99.90
20858;DHT22;10589;53.636;10.012;2024-01-15T13:26:10;2.30;99.90
20858;DHT22;10589;53.636;10.012;2024-01-15T13:28:36;2.30;99.90
20858;DHT22;10589;53.636;10.012;2024-01-15T13:31:02;2.30;99.90
20858;DHT22;10589;53.636;10.012;2024-01-15T13:33:27;2.30;99.90
20858;DHT22;10589;53.636;10.012;2024-01-15T13:35:53;2.30;99.90
20858;DHT22;10589;53.636;10.012;2024-01-15T13:38:19;2.30;99.90
20858;DHT22;10589;53.636;10.012;2024-01-15T13:40:44;2.20;99.90
20858;DHT22;10589;53.636;10.012;2024-01-15T13:43:11;2.20;99.90
20858;DHT22;10589;53.636;10.012;2024-01-15T13:45:37;2.20;99.90
20858;DHT22;10589;53.636;10.012;2024-01-15T13:48:03;2.10;99.90
20858;DHT22;10589;53.636;10.012;2024-01-15T13:50:31;2.10;99.90
20858;DHT22;10589;53.636;10.012;2024-01-15T13:52:57;2.10;99.90
20858;DHT22;10589;53.636;10.012;2024-01-15T13:55:22;2.10;99.90
20858;DHT22;10589;53.636;10.012;2024-01-15T13:57:48;2.00;99.90
20858;DHT22;10589;53.636;10.012;2024-01-15T14:00:14;1.90;99.90
20858;DHT22;10589;53.636;10.012;2024-01-15T14:02:44;1.90;99.90
20858;DHT22;10589;53.636;10.012;2024-01-15T14:05:10;1.90;99.90
20858;DHT22;10589;53.636;10.012;2024-01-15T14:07:38;1.80;99.90
20858;DHT22;10589;53.636;10.012;2024-01-15T14:10:05;1.90;99.90
20858;DHT22;10589;53.636;10.012;2024-01-15T14:12:33;1.90;99.90
20858;DHT22;10589;53.636;10.012;2024-01-15T14:14:58;1.90;99.90
20858;DHT22;10589;53.636;10.012;2024-01-15T14:17:24;2.00;99.90
20858;DHT22;10589;53.636;10.012;2024-01-15T14:19:49;1.90;99.90
20858;DHT22;10589;53.636;10.012;2024-01-15T14:22:15;1.90;99.90
20858;DHT22;10589;53.636;10.012;2024-01-15T14:24:41;1.90;99.90
20858;DHT22;10589;53.636;10.012;2024-01-15T14:27:06;1.80;99.90
20858;DHT22;10589;53.636;10.012;2024-01-15T14:29:32;1.70;99.90
20858;DHT22;10589;53.636;10.012;2024-01-15T14:31:58;1.80;99.90
20858;DHT22;10589;53.636;10.012;2024-01-15T14:34:25;1.60;99.90
20858;DHT22;10589;53.636;10.012;2024-01-15T14:36:51;1.60;99.90
20858;DHT22;10589;53.636;10.012;2024-01-15T14:39:21;1.50;99.90
20858;DHT22;10589;53.636;10.012;2024-01-15T14:41:46;1.60;99.90
20858;DHT22;10589;53.636;10.012;2024-01-15T14:44:12;1.70;99.90
20858;DHT22;10589;53.636;10.012;2024-01-15T14:46:38;1.70;99.90
20858;DHT22;10589;53.636;10.012;2024-01-15T14:49:04;1.70;99.90
20858;DHT22;10589;53.636;10.012;2024-01-15T14:51:30;1.70;99.90
20858;DHT22;10589;53.636;10.012;2024-01-15T14:53:56;1.70;99.90
20858;DHT22;10589;53.636;10.012;2024-01-15T14:56:22;1.50;99.90
20858;DHT22;10589;53.636;10.012;2024-01-15T14:58:47;1.40;99.90
20858;DHT22;10589;53.636;10.012;2024-01-15T15:01:13;1.40;99.90
20858;DHT22;10589;53.636;10.012;2024-01-15T15:03:39;1.30;99.90
20858;DHT22;10589;53.636;10.012;2024-01-15T15:06:05;1.20;99.90
20858;DHT22;10589;53.636;10.012;2024-01-15T15:08:33;1.00;99.90
20858;DHT22;10589;53.636;10.012;2024-01-15T15:10:59;1.00;99.90
20858;DHT22;10589;53.636;10.012;2024-01-15T15:13:25;1.00;99.90
20858;DHT22;10589;53.636;10.012;2024-01-15T15:15:54;1.00;99.90
20858;DHT22;10589;53.636;10.012;2024-01-15T15:18:20;1.00;99.90
20858;DHT22;10589;53.636;10.012;2024-01-15T15:20:47;0.90;99.90
20858;DHT22;10589;53.636;10.012;2024-01-15T15:23:13;0.90;99.90
20858;DHT22;10589;53.636;10.012;2024-01-15T15:25:39;0.90;99.90
20858;DHT22;10589;53.636;10.012;2024-01-15T15:28:04;0.70;99.90
20858;DHT22;10589;53.636;10.012;2024-01-15T15:30:31;0.60;99.90
20858;DHT22;10589;53.636;10.012;2024-01-15T15:32:56;0.60;99.90
20858;DHT22;10589;53.636;10.012;2024-01-15T15:35:22;0.60;99.90
20858;DHT22;10589;53.636;10.012;2024-01-15T15:37:48;0.60;99.90
20858;DHT22;10589;53.636;10.012;2024-01-15T15:40:13;0.60;99.90
20858;DHT22;10589;53.636;10.012;2024-01-15T15:42:39;0.40;99.90
20858;DHT22;10589;53.636;10.012;2024-01-15T15:45:05;0.50;99.90
20858;DHT22;10589;53.636;10.012;2024-01-15T15:47:32;0.40;99.90
20858;DHT22;10589;53.636;10.012;2024-01-15T15:49:58;0.40;99.90
20858;DHT22;10589;53.636;10.012;2024-01-15T15:52:24;0.40;99.90
20858;DHT22;10589;53.636;10.012;2024-01-15T15:54:49;0.30;99.90
20858;DHT22;10589;53.636;10.012;2024-01-15T15:57:15;0.20;99.90
20858;DHT22;10589;53.636;10.012;2024-01-15T15:59:41;0.20;99.90
20858;DHT22;10589;53.636;10.012;2024-01-15T16:02:06;0.20;99.90
20858;DHT22;10589;53.636;10.012;2024-01-15T16:04:32;0.20;99.90
20858;DHT22;10589;53.636;10.012;2024-01-15T16:06:58;0.30;99.90
20858;DHT22;10589;53.636;10.012;2024-01-15T16:09:24;0.30;99.90
20858;DHT22;10589;53.636;10.012;2024-01-15T16:11:50;0.20;99.90
20858;DHT22;10589;53.636;10.012;2024-01-15T16:14:15;0.20;99.90
20858;DHT22;10589;53.636;10.012;2024-01-15T16:16:43;0.30;99.90
20858;DHT22;10589;53.636;10.012;2024-01-15T16:19:09;0.40;99.90
20858;DHT22;10589;53.636;10.012;2024-01-15T16:21:35;0.40;99.90
20858;DHT22;10589;53.636;10.012;2024-01-15T16:24:00;0.40;99.90
20858;DHT22;10589;53.636;10.012;2024-01-15T16:26:26;0.40;99.90
20858;DHT22;10589;53.636;10.012;2024-01-15T16:28:52;0.30;99.90
20858;DHT22;10589;53.636;10.012;2024-01-15T16:31:17;0.30;99.90
20858;DHT22;10589;53.636;10.012;2024-01-15T16:33:43;0.40;99.90
20858;DHT22;10589;53.636;10.012;2024-01-15T16:36:08;0.30;99.90
20858;DHT22;10589;53.636;10.012;2024-01-15T16:38:34;0.40;99.90
20858;DHT22;10589;53.636;10.012;2024-01-15T16:41:00;0.30;99.90
20858;DHT22;10589;53.636;10.012;2024-01-15T16:43:26;0.40;99.90
20858;DHT22;10589;53.636;10.012;2024-01-15T16:45:51;0.40;99.90
20858;DHT22;10589;53.636;10.012;2024-01-15T16:48:17;0.50;99.90
20858;DHT22;10589;53.636;10.012;2024-01-15T16:50:43;0.40;99.90
20858;DHT22;10589;53.636;10.012;2024-01-15T16:53:08;0.40;99.90
20858;DHT22;10589;53.636;10.012;2024-01-15T16:55:35;0.30;99.90
20858;DHT22;10589;53.636;10.012;2024-01-15T16:58:01;0.30;99.90
20858;DHT22;10589;53.636;10.012;2024-01-15T17:00:26;0.20;99.90
20858;DHT22;10589;53.636;10.012;2024-01-15T17:02:53;0.20;99.90
20858;DHT22;10589;53.636;10.012;2024-01-15T17:05:22;0.10;99.90
20858;DHT22;10589;53.636;10.012;2024-01-15T17:07:47;0.10;99.90
20858;DHT22;10589;53.636;10.012;2024-01-15T17:10:13;0.10;99.90
20858;DHT22;10589;53.636;10.012;2024-01-15T17:12:40;0.00;99.90
20858;DHT22;10589;53.636;10.012;2024-01-15T17:15:06;0.10;99.90
20858;DHT22;10589;53.636;10.012;2024-01-15T17:17:32;0.10;99.90
20858;DHT22;10589;53.636;10.012;2024-01-15T17:19:58;0.20;99.90
20858;DHT22;10589;53.636;10.012;2024-01-15T17:22:24;0.20;99.90
20858;DHT22;10589;53.636;10.012;2024-01-15T17:24:49;0.30;99.90
20858;DHT22;10589;53.636;10.012;2024-01-15T17:27:15;0.40;99.90
20858;DHT22;10589;53.636;10.012;2024-01-15T17:29:40;0.40;99.90
20858;DHT22;10589;53.636;10.012;2024-01-15T17:32:06;0.40;99.90
20858;DHT22;10589;53.636;10.012;2024-01-15T17:34:32;0.30;99.90
20858;DHT22;10589;53.636;10.012;2024-01-15T17:36:58;0.30;99.90
20858;DHT22;10589;53.636;10.012;2024-01-15T17:39:24;0.20;99.90
20858;DHT22;10589;53.636;10.012;2024-01-15T17:41:49;0.20;99.90
20858;DHT22;10589;53.636;10.012;2024-01-15T17:44:15;0.20;99.90
20858;DHT22;10589;53.636;10.012;2024-01-15T17:46:41;0.30;99.90
20858;DHT22;10589;53.636;10.012;2024-01-15T17:49:07;0.20;99.90
20858;DHT22;10589;53.636;10.012;2024-01-15T17:51:33;0.40;99.90
20858;DHT22;10589;53.636;10.012;2024-01-15T17:54:00;0.30;99.90
20858;DHT22;10589;53.636;10.012;2024-01-15T17:56:26;0.40;99.90
20858;DHT22;10589;53.636;10.012;2024-01-15T17:58:52;0.50;99.90
20858;DHT22;10589;53.636;10.012;2024-01-15T18:01:17;0.40;99.90
20858;DHT22;10589;53.636;10.012;2024-01-15T18:03:46;0.50;99.90
20858;DHT22;10589;53.636;10.012;2024-01-15T18:06:12;0.50;99.90
20858;DHT22;10589;53.636;10.012;2024-01-15T18:08:37;0.60;99.90
20858;DHT22;10589;53.636;10.012;2024-01-15T18:11:04;0.60;99.90
20858;DHT22;10589;53.636;10.012;2024-01-15T18:13:32;0.50;99.90
20858;DHT22;10589;53.636;10.012;2024-01-15T18:15:58;0.50;99.90
20858;DHT22;10589;53.636;10.012;2024-01-15T18:18:24;0.50;99.90
20858;DHT22;10589;53.636;10.012;2024-01-15T18:20:50;0.50;99.90
20858;DHT22;10589;53.636;10.012;2024-01-15T18:23:16;0.50;99.90
20858;DHT22;10589;53.636;10.012;2024-01-15T18:25:41;0.50;99.90
20858;DHT22;10589;53.636;10.012;2024-01-15T18:28:07;0.50;99.90
20858;DHT22;10589;53.636;10.012;2024-01-15T18:30:34;0.60;99.90
20858;DHT22;10589;53.636;10.012;2024-01-15T18:32:59;0.60;99.90
20858;DHT22;10589;53.636;10.012;2024-01-15T18:35:25;0.60;99.90
20858;DHT22;10589;53.636;10.012;2024-01-15T18:37:52;0.60;99.90
20858;DHT22;10589;53.636;10.012;2024-01-15T18:40:18;0.60;99.90
20858;DHT22;10589;53.636;10.012;2024-01-15T18:42:44;0.60;99.90
20858;DHT22;10589;53.636;10.012;2024-01-15T18:45:10;0.70;99.90
20858;DHT22;10589;53.636;10.012;2024-01-15T18:47:36;0.80;99.90
20858;DHT22;10589;53.636;10.012;2024-01-15T18:50:02;0.80;99.90
20858;DHT22;10589;53.636;10.012;2024-01-15T18:52:27;0.80;99.90
20858;DHT22;10589;53.636;10.012;2024-01-15T18:54:53;0.70;99.90
20858;DHT22;10589;53.636;10.012;2024-01-15T18:57:19;0.60;99.90
20858;DHT22;10589;53.636;10.012;2024-01-15T18:59:44;0.50;99.90
20858;DHT22;10589;53.636;10.012;2024-01-15T19:02:13;0.50;99.90
20858;DHT22;10589;53.636;10.012;2024-01-15T19:04:38;0.50;99.90
20858;DHT22;10589;53.636;10.012;2024-01-15T19:07:04;0.50;99.90
20858;DHT22;10589;53.636;10.012;2024-01-15T19:09:32;0.60;99.90
20858;DHT22;10589;53.636;10.012;2024-01-15T19:11:58;0.60;99.90
20858;DHT22;10589;53.636;10.012;2024-01-15T19:14:23;0.60;99.90
20858;DHT22;10589;53.636;10.012;2024-01-15T19:16:49;0.60;99.90
20858;DHT22;10589;53.636;10.012;2024-01-15T19:19:14;0.60;99.90
20858;DHT22;10589;53.636;10.012;2024-01-15T19:21:40;0.60;99.90
20858;DHT22;10589;53.636;10.012;2024-01-15T19:24:06;0.60;99.90
20858;DHT22;10589;53.636;10.012;2024-01-15T19:26:31;0.60;99.90
20858;DHT22;10589;53.636;10.012;2024-01-15T19:28:57;0.60;99.90
20858;DHT22;10589;53.636;10.012;2024-01-15T19:31:22;0.60;99.90
20858;DHT22;10589;53.636;10.012;2024-01-15T19:33:48;0.60;99.90
20858;DHT22;10589;53.636;10.012;2024-01-15T19:36:25;0.70;99.90
20858;DHT22;10589;53.636;10.012;2024-01-15T19:38:52;0.70;99.90
20858;DHT22;10589;53.636;10.012;2024-01-15T19:41:18;0.70;99.90
20858;DHT22;10589;53.636;10.012;2024-01-15T19:43:44;0.70;99.90
20858;DHT22;10589;53.636;10.012;2024-01-15T19:46:09;0.80;99.90
20858;DHT22;10589;53.636;10.012;2024-01-15T19:48:35;0.80;99.90
20858;DHT22;10589;53.636;10.012;2024-01-15T19:51:04;0.80;99.90
20858;DHT22;10589;53.636;10.012;2024-01-15T19:53:30;0.80;99.90
20858;DHT22;10589;53.636;10.012;2024-01-15T19:55:56;0.90;99.90
20858;DHT22;10589;53.636;10.012;2024-01-15T19:58:21;0.80;99.90
20858;DHT22;10589;53.636;10.012;2024-01-15T20:00:48;0.90;99.90
20858;DHT22;10589;53.636;10.012;2024-01-15T20:03:14;0.90;99.90
20858;DHT22;10589;53.636;10.012;2024-01-15T20:05:39;0.90;99.90
20858;DHT22;10589;53.636;10.012;2024-01-15T20:08:05;0.90;99.90
20858;DHT22;10589;53.636;10.012;2024-01-15T20:10:31;0.90;99.90
20858;DHT22;10589;53.636;10.012;2024-01-15T20:12:58;0.90;99.90
20858;DHT22;10589;53.636;10.012;2024-01-15T20:15:24;1.00;99.90
20858;DHT22;10589;53.636;10.012;2024-01-15T20:17:51;0.90;99.90
20858;DHT22;10589;53.636;10.012;2024-01-15T20:20:19;0.80;99.90
20858;DHT22;10589;53.636;10.012;2024-01-15T20:22:45;0.60;99.90
20858;DHT22;10589;53.636;10.012;2024-01-15T20:25:11;0.40;99.90